sensor_id;sensor_type;location;lat;lon;timestamp;temperature;humidity
64869;DHT22;51349;52.424;10.840;2022-12-24T00:00:35;5.80;99.90
64869;DHT22;51349;52.424;10.840;2022-12-24T00:05:37;5.80;99.90
64869;DHT22;51349;52.424;10.840;2022-12-24T00:10:37;5.80;99.90
64869;DHT22;51349;52.424;10.840;2022-12-24T00:15:38;5.70;99.90
64869;DHT22;51349;52.424;10.840;2022-12-24T00:20:38;5.70;99.90
64869;DHT22;51349;52.424;10.840;2022-12-24T00:25:39;5.70;99.90
64869;DHT22;51349;52.424;10.840;2022-12-24T00:30:41;5.70;99.90
64869;DHT22;51349;52.424;10.840;2022-12-24T00:35:42;5.70;99.90
64869;DHT22;51349;52.424;10.840;2022-12-24T00:40:42;5.70;99.90
64869;DHT22;51349;52.424;10.840;2022-12-24T00:45:43;5.70;99.90
64869;DHT22;51349;52.424;10.840;2022-12-24T00:50:44;5.70;99.90
64869;DHT22;51349;52.424;10.840;2022-12-24T00:55:44;5.70;99.90
64869;DHT22;51349;52.424;10.840;2022-12-24T01:00:45;5.70;99.90
64869;DHT22;51349;52.424;10.840;2022-12-24T01:05:46;5.70;99.90
64869;DHT22;51349;52.424;10.840;2022-12-24T01:10:47;5.70;99.90
64869;DHT22;51349;52.424;10.840;2022-12-24T01:15:48;5.70;99.90
64869;DHT22;51349;52.424;10.840;2022-12-24T01:21:00;5.70;99.90
64869;DHT22;51349;52.424;10.840;2022-12-24T01:26:02;5.60;99.90
64869;DHT22;51349;52.424;10.840;2022-12-24T01:31:14;5.60;99.90
64869;DHT22;51349;52.424;10.840;2022-12-24T01:36:15;5.60;99.90
64869;DHT22;51349;52.424;10.840;2022-12-24T01:41:19;5.70;99.90
64869;DHT22;51349;52.424;10.840;2022-12-24T01:46:38;5.60;99.90
64869;DHT22;51349;52.424;10.840;2022-12-24T01:51:46;5.60;99.90
64869;DHT22;51349;52.424;10.840;2022-12-24T01:56:56;5.60;99.90
64869;DHT22;51349;52.424;10.840;2022-12-24T02:01:58;5.60;99.90
64869;DHT22;51349;52.424;10.840;2022-12-24T02:06:59;5.60;99.90
64869;DHT22;51349;52.424;10.840;2022-12-24T02:12:00;5.60;99.90
64869;DHT22;51349;52.424;10.840;2022-12-24T02:17:28;5.60;99.90
64869;DHT22;51349;52.424;10.840;2022-12-24T02:28:58;5.60;99.90
64869;DHT22;51349;52.424;10.840;2022-12-24T02:34:12;5.60;99.90
64869;DHT22;51349;52.424;10.840;2022-12-24T02:39:23;5.60;99.90
64869;DHT22;51349;52.424;10.840;2022-12-24T02:44:27;5.60;99.90
64869;DHT22;51349;52.424;10.840;2022-12-24T02:49:29;5.60;99.90
64869;DHT22;51349;52.424;10.840;2022-12-24T02:54:30;5.60;99.90
64869;DHT22;51349;52.424;10.840;2022-12-24T03:10:19;5.60;99.90
64869;DHT22;51349;52.424;10.840;2022-12-24T03:15:23;5.60;99.90
64869;DHT22;51349;52.424;10.840;2022-12-24T03:20:47;5.70;99.90
64869;DHT22;51349;52.424;10.840;2022-12-24T03:25:47;5.60;99.90
64869;DHT22;51349;52.424;10.840;2022-12-24T03:30:48;5.70;99.90
64869;DHT22;51349;52.424;10.840;2022-12-24T03:35:49;5.60;99.90
64869;DHT22;51349;52.424;10.840;2022-12-24T03:40:49;5.60;99.90
64869;DHT22;51349;52.424;10.840;2022-12-24T03:45:50;5.60;99.90
64869;DHT22;51349;52.424;10.840;2022-12-24T03:50:51;5.70;99.90
64869;DHT22;51349;52.424;10.840;2022-12-24T03:55:51;5.60;99.90
64869;DHT22;51349;52.424;10.840;2022-12-24T04:00:52;5.60;99.90
64869;DHT22;51349;52.424;10.840;2022-12-24T04:06:05;5.60;99.90
64869;DHT22;51349;52.424;10.840;2022-12-24T04:11:08;5.60;99.90
64869;DHT22;51349;52.424;10.840;2022-12-24T04:16:11;5.70;99.90
64869;DHT22;51349;52.424;10.840;2022-12-24T04:21:12;5.70;99.90
64869;DHT22;51349;52.424;10.840;2022-12-24T04:26:13;5.70;99.90
64869;DHT22;51349;52.424;10.840;2022-12-24T04:31:16;5.80;99.90
64869;DHT22;51349;52.424;10.840;2022-12-24T04:36:18;5.80;99.90
64869;DHT22;51349;52.424;10.840;2022-12-24T04:41:20;5.80;99.90
64869;DHT22;51349;52.424;10.840;2022-12-24T04:46:25;5.80;99.90
64869;DHT22;51349;52.424;10.840;2022-12-24T04:51:26;5.80;99.90
64869;DHT22;51349;52.424;10.840;2022-12-24T04:56:29;5.80;99.90
64869;DHT22;51349;52.424;10.840;2022-12-24T05:01:31;5.80;99.90
64869;DHT22;51349;52.424;10.840;2022-12-24T05:06:32;5.80;99.90
64869;DHT22;51349;52.424;10.840;2022-12-24T05:11:33;5.80;99.90
64869;DHT22;51349;52.424;10.840;2022-12-24T05:16:34;6.00;99.90
64869;DHT22;51349;52.424;10.840;2022-12-24T05:21:34;6.20;99.90
64869;DHT22;51349;52.424;10.840;2022-12-24T05:26:42;6.40;99.90
64869;DHT22;51349;52.424;10.840;2022-12-24T05:31:44;6.60;99.90
64869;DHT22;51349;52.424;10.840;2022-12-24T05:36:45;6.80;99.90
64869;DHT22;51349;52.424;10.840;2022-12-24T05:41:46;7.10;99.90
64869;DHT22;51349;52.424;10.840;2022-12-24T05:46:47;7.30;99.90
64869;DHT22;51349;52.424;10.840;2022-12-24T05:51:47;7.40;99.90
64869;DHT22;51349;52.424;10.840;2022-12-24T05:56:48;7.40;99.90
64869;DHT22;51349;52.424;10.840;2022-12-24T06:01:48;7.50;99.90
64869;DHT22;51349;52.424;10.840;2022-12-24T06:06:49;7.70;99.90
64869;DHT22;51349;52.424;10.840;2022-12-24T06:11:50;7.60;99.90
64869;DHT22;51349;52.424;10.840;2022-12-24T06:16:50;7.70;99.90
64869;DHT22;51349;52.424;10.840;2022-12-24T06:21:51;7.70;99.90
64869;DHT22;51349;52.424;10.840;2022-12-24T06:26:51;7.80;99.90
64869;DHT22;51349;52.424;10.840;2022-12-24T06:31:52;7.70;99.90
64869;DHT22;51349;52.424;10.840;2022-12-24T06:36:53;7.80;99.90
64869;DHT22;51349;52.424;10.840;2022-12-24T06:41:54;7.80;99.90
64869;DHT22;51349;52.424;10.840;2022-12-24T06:46:54;7.90;99.90
64869;DHT22;51349;52.424;10.840;2022-12-24T06:51:55;8.00;99.90
64869;DHT22;51349;52.424;10.840;2022-12-24T06:56:56;8.10;99.90
64869;DHT22;51349;52.424;10.840;2022-12-24T07:01:56;8.20;99.90
64869;DHT22;51349;52.424;10.840;2022-12-24T07:06:57;8.30;99.90
64869;DHT22;51349;52.424;10.840;2022-12-24T07:11:57;8.30;99.90
64869;DHT22;51349;52.424;10.840;2022-12-24T07:16:58;8.40;99.90
64869;DHT22;51349;52.424;10.840;2022-12-24T07:21:59;8.40;99.90
64869;DHT22;51349;52.424;10.840;2022-12-24T07:27:00;8.40;99.90
64869;DHT22;51349;52.424;10.840;2022-12-24T07:32:00;8.30;99.90
64869;DHT22;51349;52.424;10.840;2022-12-24T07:37:01;8.30;99.90
64869;DHT22;51349;52.424;10.840;2022-12-24T07:42:02;8.30;99.90
64869;DHT22;51349;52.424;10.840;2022-12-24T07:47:05;8.30;99.90
64869;DHT22;51349;52.424;10.840;2022-12-24T07:52:05;8.30;99.90
64869;DHT22;51349;52.424;10.840;2022-12-24T07:57:06;8.20;99.90
64869;DHT22;51349;52.424;10.840;2022-12-24T08:02:09;8.20;99.90
64869;DHT22;51349;52.424;10.840;2022-12-24T08:07:10;8.20;99.90
64869;DHT22;51349;52.424;10.840;2022-12-24T08:12:11;8.20;99.90
64869;DHT22;51349;52.424;10.840;2022-12-24T08:17:12;8.20;99.90
64869;DHT22;51349;52.424;10.840;2022-12-24T08:22:12;8.30;99.90
64869;DHT22;51349;52.424;10.840;2022-12-24T08:27:14;8.20;99.90
64869;DHT22;51349;52.424;10.840;2022-12-24T08:32:15;8.20;99.90
64869;DHT22;51349;52.424;10.840;2022-12-24T08:37:15;8.30;99.90
64869;DHT22;51349;52.424;10.840;2022-12-24T08:42:16;8.40;99.90
64869;DHT22;51349;52.424;10.840;2022-12-24T08:47:17;8.40;99.90
64869;DHT22;51349;52.424;10.840;2022-12-24T08:52:17;8.50;99.90
64869;DHT22;51349;52.424;10.840;2022-12-24T08:57:18;8.50;99.90
64869;DHT22;51349;52.424;10.840;2022-12-24T09:02:19;8.60;99.90
64869;DHT22;51349;52.424;10.840;2022-12-24T09:07:20;8.50;99.90
64869;DHT22;51349;52.424;10.840;2022-12-24T09:12:21;8.60;99.90
64869;DHT22;51349;52.424;10.840;2022-12-24T09:17:21;8.60;99.90
64869;DHT22;51349;52.424;10.840;2022-12-24T09:22:22;8.70;99.90
64869;DHT22;51349;52.424;10.840;2022-12-24T09:27:23;8.70;99.90
64869;DHT22;51349;52.424;10.840;2022-12-24T09:32:23;8.70;99.90
64869;DHT22;51349;52.424;10.840;2022-12-24T09:37:24;8.70;99.90
64869;DHT22;51349;52.424;10.840;2022-12-24T09:42:42;8.60;99.90
64869;DHT22;51349;52.424;10.840;2022-12-24T09:48:01;8.70;99.90
64869;DHT22;51349;52.424;10.840;2022-12-24T09:53:17;8.70;99.90
64869;DHT22;51349;52.424;10.840;2022-12-24T09:58:32;8.70;99.90
64869;DHT22;51349;52.424;10.840;2022-12-24T10:03:33;8.70;99.90
64869;DHT22;51349;52.424;10.840;2022-12-24T10:19:24;8.90;99.90
64869;DHT22;51349;52.424;10.840;2022-12-24T10:24:49;8.90;99.90
64869;DHT22;51349;52.424;10.840;2022-12-24T10:30:00;9.00;99.90
64869;DHT22;51349;52.424;10.840;2022-12-24T10:40:40;9.10;99.90
64869;DHT22;51349;52.424;10.840;2022-12-24T10:45:48;9.10;99.90
64869;DHT22;51349;52.424;10.840;2022-12-24T10:51:02;9.20;99.90
64869;DHT22;51349;52.424;10.840;2022-12-24T10:56:10;9.40;99.90
64869;DHT22;51349;52.424;10.840;2022-12-24T11:01:12;9.40;99.90
64869;DHT22;51349;52.424;10.840;2022-12-24T11:06:15;9.50;99.90
64869;DHT22;51349;52.424;10.840;2022-12-24T11:11:20;9.80;99.90
64869;DHT22;51349;52.424;10.840;2022-12-24T11:21:34;9.80;99.90
64869;DHT22;51349;52.424;10.840;2022-12-24T11:26:36;9.80;99.90
64869;DHT22;51349;52.424;10.840;2022-12-24T11:31:37;9.80;99.90
64869;DHT22;51349;52.424;10.840;2022-12-24T11:36:38;9.80;99.90
64869;DHT22;51349;52.424;10.840;2022-12-24T11:41:39;9.80;99.90
64869;DHT22;51349;52.424;10.840;2022-12-24T11:46:43;9.70;99.90
64869;DHT22;51349;52.424;10.840;2022-12-24T11:57:12;9.60;99.90
64869;DHT22;51349;52.424;10.840;2022-12-24T12:02:36;9.50;99.90
64869;DHT22;51349;52.424;10.840;2022-12-24T12:07:38;9.40;99.90
64869;DHT22;51349;52.424;10.840;2022-12-24T12:12:42;9.30;99.90
64869;DHT22;51349;52.424;10.840;2022-12-24T12:18:03;9.20;99.90
64869;DHT22;51349;52.424;10.840;2022-12-24T12:23:22;9.10;99.90
64869;DHT22;51349;52.424;10.840;2022-12-24T12:38:45;9.10;99.90
64869;DHT22;51349;52.424;10.840;2022-12-24T12:59:36;9.00;99.90
64869;DHT22;51349;52.424;10.840;2022-12-24T13:20:48;9.10;99.90
64869;DHT22;51349;52.424;10.840;2022-12-24T13:25:52;9.20;99.90
64869;DHT22;51349;52.424;10.840;2022-12-24T13:36:19;9.30;99.90
64869;DHT22;51349;52.424;10.840;2022-12-24T13:51:50;9.10;99.90
64869;DHT22;51349;52.424;10.840;2022-12-24T13:56:51;9.10;99.90
64869;DHT22;51349;52.424;10.840;2022-12-24T14:01:51;9.10;99.90
64869;DHT22;51349;52.424;10.840;2022-12-24T14:06:53;9.10;99.90
64869;DHT22;51349;52.424;10.840;2022-12-24T14:17:00;8.90;99.90
64869;DHT22;51349;52.424;10.840;2022-12-24T14:22:11;9.00;99.90
64869;DHT22;51349;52.424;10.840;2022-12-24T14:27:17;8.90;99.90
64869;DHT22;51349;52.424;10.840;2022-12-24T14:32:18;8.90;99.90
64869;DHT22;51349;52.424;10.840;2022-12-24T14:37:19;8.80;99.90
64869;DHT22;51349;52.424;10.840;2022-12-24T14:42:40;8.80;99.90
64869;DHT22;51349;52.424;10.840;2022-12-24T14:58:30;8.60;99.90
64869;DHT22;51349;52.424;10.840;2022-12-24T15:03:31;8.50;99.90
64869;DHT22;51349;52.424;10.840;2022-12-24T15:08:58;8.50;99.90
64869;DHT22;51349;52.424;10.840;2022-12-24T15:14:00;8.40;99.90
64869;DHT22;51349;52.424;10.840;2022-12-24T15:19:23;8.40;99.90
64869;DHT22;51349;52.424;10.840;2022-12-24T15:24:31;8.20;99.90
64869;DHT22;51349;52.424;10.840;2022-12-24T15:29:37;8.20;99.90
64869;DHT22;51349;52.424;10.840;2022-12-24T15:34:40;8.10;99.90
64869;DHT22;51349;52.424;10.840;2022-12-24T15:39:41;8.00;99.90
64869;DHT22;51349;52.424;10.840;2022-12-24T15:45:05;7.90;99.90
64869;DHT22;51349;52.424;10.840;2022-12-24T15:50:44;7.90;99.90
64869;DHT22;51349;52.424;10.840;2022-12-24T15:55:44;7.80;99.90
64869;DHT22;51349;52.424;10.840;2022-12-24T16:01:00;7.80;99.90
64869;DHT22;51349;52.424;10.840;2022-12-24T16:11:16;7.80;99.90
64869;DHT22;51349;52.424;10.840;2022-12-24T16:16:41;7.70;99.90
64869;DHT22;51349;52.424;10.840;2022-12-24T16:21:41;7.70;99.90
64869;DHT22;51349;52.424;10.840;2022-12-24T16:26:42;7.70;99.90
64869;DHT22;51349;52.424;10.840;2022-12-24T16:31:55;7.70;99.90
64869;DHT22;51349;52.424;10.840;2022-12-24T16:36:57;7.80;99.90
64869;DHT22;51349;52.424;10.840;2022-12-24T16:42:01;7.70;99.90
64869;DHT22;51349;52.424;10.840;2022-12-24T16:47:28;7.70;99.90
64869;DHT22;51349;52.424;10.840;2022-12-24T16:52:31;7.70;99.90
64869;DHT22;51349;52.424;10.840;2022-12-24T16:57:38;7.70;99.90
64869;DHT22;51349;52.424;10.840;2022-12-24T17:02:39;7.60;99.90
64869;DHT22;51349;52.424;10.840;2022-12-24T17:07:39;7.60;99.90
64869;DHT22;51349;52.424;10.840;2022-12-24T17:12:41;7.50;99.90
64869;DHT22;51349;52.424;10.840;2022-12-24T17:17:42;7.40;99.90
64869;DHT22;51349;52.424;10.840;2022-12-24T17:22:42;7.30;99.90
64869;DHT22;51349;52.424;10.840;2022-12-24T17:27:43;7.20;99.90
64869;DHT22;51349;52.424;10.840;2022-12-24T17:32:44;7.30;99.90
64869;DHT22;51349;52.424;10.840;2022-12-24T17:37:44;7.20;99.90
64869;DHT22;51349;52.424;10.840;2022-12-24T17:42:45;7.10;99.90
64869;DHT22;51349;52.424;10.840;2022-12-24T17:47:46;7.10;99.90
64869;DHT22;51349;52.424;10.840;2022-12-24T17:52:46;7.10;99.90
64869;DHT22;51349;52.424;10.840;2022-12-24T17:57:47;7.10;99.90
64869;DHT22;51349;52.424;10.840;2022-12-24T18:02:47;7.20;99.90
64869;DHT22;51349;52.424;10.840;2022-12-24T18:07:48;7.20;99.90
64869;DHT22;51349;52.424;10.840;2022-12-24T18:12:49;7.10;99.90
64869;DHT22;51349;52.424;10.840;2022-12-24T18:17:51;7.00;99.90
64869;DHT22;51349;52.424;10.840;2022-12-24T18:22:52;7.00;99.90
64869;DHT22;51349;52.424;10.840;2022-12-24T18:27:53;6.80;99.90
64869;DHT22;51349;52.424;10.840;2022-12-24T18:32:53;6.80;99.90
64869;DHT22;51349;52.424;10.840;2022-12-24T18:37:54;6.80;99.90
64869;DHT22;51349;52.424;10.840;2022-12-24T18:42:54;6.70;99.90
64869;DHT22;51349;52.424;10.840;2022-12-24T18:47:55;6.70;99.90
64869;DHT22;51349;52.424;10.840;2022-12-24T18:52:56;6.60;99.90
64869;DHT22;51349;52.424;10.840;2022-12-24T18:57:56;6.70;99.90
64869;DHT22;51349;52.424;10.840;2022-12-24T19:02:57;6.80;99.90
64869;DHT22;51349;52.424;10.840;2022-12-24T19:07:58;6.90;99.90
64869;DHT22;51349;52.424;10.840;2022-12-24T19:12:58;6.90;99.90
64869;DHT22;51349;52.424;10.840;2022-12-24T19:17:59;6.80;99.90
64869;DHT22;51349;52.424;10.840;2022-12-24T19:23:00;6.70;99.90
64869;DHT22;51349;52.424;10.840;2022-12-24T19:28:01;6.40;99.90
64869;DHT22;51349;52.424;10.840;2022-12-24T19:33:08;6.50;99.90
64869;DHT22;51349;52.424;10.840;2022-12-24T19:38:09;6.30;99.90
64869;DHT22;51349;52.424;10.840;2022-12-24T19:43:09;6.20;99.90
64869;DHT22;51349;52.424;10.840;2022-12-24T19:48:10;6.20;99.90
64869;DHT22;51349;52.424;10.840;2022-12-24T19:53:10;6.10;99.90
64869;DHT22;51349;52.424;10.840;2022-12-24T19:58:11;6.30;99.90
64869;DHT22;51349;52.424;10.840;2022-12-24T20:03:12;6.30;99.90
64869;DHT22;51349;52.424;10.840;2022-12-24T20:08:13;6.20;99.90
64869;DHT22;51349;52.424;10.840;2022-12-24T20:13:13;6.10;99.90
64869;DHT22;51349;52.424;10.840;2022-12-24T20:18:14;6.20;99.90
64869;DHT22;51349;52.424;10.840;2022-12-24T20:23:15;6.10;99.90
64869;DHT22;51349;52.424;10.840;2022-12-24T20:28:17;6.10;99.90
64869;DHT22;51349;52.424;10.840;2022-12-24T20:33:18;6.00;99.90
64869;DHT22;51349;52.424;10.840;2022-12-24T20:38:18;6.10;99.90
64869;DHT22;51349;52.424;10.840;2022-12-24T20:43:19;6.00;99.90
64869;DHT22;51349;52.424;10.840;2022-12-24T20:48:20;5.90;99.90
64869;DHT22;51349;52.424;10.840;2022-12-24T20:53:21;5.90;99.90
64869;DHT22;51349;52.424;10.840;2022-12-24T20:58:21;5.70;99.90
64869;DHT22;51349;52.424;10.840;2022-12-24T21:03:22;5.70;99.90
64869;DHT22;51349;52.424;10.840;2022-12-24T21:08:23;5.60;99.90
64869;DHT22;51349;52.424;10.840;2022-12-24T21:13:23;5.70;99.90
64869;DHT22;51349;52.424;10.840;2022-12-24T21:18:24;5.70;99.90
64869;DHT22;51349;52.424;10.840;2022-12-24T21:23:25;5.60;99.90
64869;DHT22;51349;52.424;10.840;2022-12-24T21:28:26;5.60;99.90
64869;DHT22;51349;52.424;10.840;2022-12-24T21:33:27;5.60;99.90
64869;DHT22;51349;52.424;10.840;2022-12-24T21:38:27;5.50;99.90
64869;DHT22;51349;52.424;10.840;2022-12-24T21:43:32;5.40;99.90
64869;DHT22;51349;52.424;10.840;2022-12-24T21:48:33;5.50;99.90
64869;DHT22;51349;52.424;10.840;2022-12-24T21:53:53;5.40;99.90
64869;DHT22;51349;52.424;10.840;2022-12-24T21:59:13;5.30;99.90
64869;DHT22;51349;52.424;10.840;2022-12-24T22:04:14;5.10;99.90
64869;DHT22;51349;52.424;10.840;2022-12-24T22:09:15;5.00;99.90
64869;DHT22;51349;52.424;10.840;2022-12-24T22:14:34;4.80;99.90
64869;DHT22;51349;52.424;10.840;2022-12-24T22:19:35;4.60;99.90
64869;DHT22;51349;52.424;10.840;2022-12-24T22:24:35;4.60;99.90
64869;DHT22;51349;52.424;10.840;2022-12-24T22:29:36;4.50;99.90
64869;DHT22;51349;52.424;10.840;2022-12-24T22:34:37;4.70;99.90
64869;DHT22;51349;52.424;10.840;2022-12-24T22:39:37;4.80;99.90
64869;DHT22;51349;52.424;10.840;2022-12-24T22:44:38;4.90;99.90
64869;DHT22;51349;52.424;10.840;2022-12-24T22:49:39;4.70;99.90
64869;DHT22;51349;52.424;10.840;2022-12-24T22:54:39;4.80;99.90
64869;DHT22;51349;52.424;10.840;2022-12-24T22:59:40;4.90;99.90
64869;DHT22;51349;52.424;10.840;2022-12-24T23:04:41;5.10;99.90
64869;DHT22;51349;52.424;10.840;2022-12-24T23:09:41;5.20;99.90
64869;DHT22;51349;52.424;10.840;2022-12-24T23:14:42;5.20;99.90
64869;DHT22;51349;52.424;10.840;2022-12-24T23:20:00;5.10;99.90
64869;DHT22;51349;52.424;10.840;2022-12-24T23:25:01;5.00;99.90
64869;DHT22;51349;52.424;10.840;2022-12-24T23:30:02;5.00;99.90
64869;DHT22;51349;52.424;10.840;2022-12-24T23:35:03;5.10;99.90
64869;DHT22;51349;52.424;10.840;2022-12-24T23:40:06;5.20;99.90
64869;DHT22;51349;52.424;10.840;2022-12-24T23:45:07;5.00;99.90
64869;DHT22;51349;52.424;10.840;2022-12-24T23:50:09;5.10;99.90
64869;DHT22;51349;52.424;10.840;2022-12-24T23:55:10;5.00;99.90
